EDW385R LICA-LSZH
Flight info
| Callsign | EDW385R |
|---|---|
| Flight time | 1h 47m |
| Altitude | 34000 |
| Route | ARBUM DCT EVINO DCT NIKMA DCT CANNE Z651 KELIP |
| Aircraft | A320/M-SDE2E3FGHIJ1RWXY/LB1 |
Departure
| Time | 2026-05-01 11:55 |
|---|---|
| Airport | Lamezia Terme Sant'Eufemia International Airport (LICA) |
Arrival
| Time | 2026-05-01 13:43 |
|---|---|
| Airport | Zürich Airport (LSZH) |
| Time | Latitude | Longitude | Altitude | Speed | Heading |
|---|---|---|---|---|---|
| 2026-05-01 11:30 | 38.90853 | 16.24599 | 45 ft | 0 kts | 46° |
| 2026-05-01 11:50 | 38.90846 | 16.24628 | 45 ft | 8 kts | 144° |
| 2026-05-01 11:51 | 38.90794 | 16.24617 | 45 ft | 7 kts | 197° |
| 2026-05-01 11:51 | 38.90736 | 16.24623 | 45 ft | 12 kts | 141° |
| 2026-05-01 11:51 | 38.90705 | 16.24743 | 45 ft | 15 kts | 102° |
| 2026-05-01 11:51 | 38.90690 | 16.24872 | 45 ft | 14 kts | 96° |
| 2026-05-01 11:52 | 38.90680 | 16.24989 | 43 ft | 12 kts | 96° |
| 2026-05-01 11:52 | 38.90667 | 16.25096 | 45 ft | 13 kts | 101° |
| 2026-05-01 11:52 | 38.90651 | 16.25204 | 43 ft | 12 kts | 99° |
| 2026-05-01 11:52 | 38.90637 | 16.25306 | 45 ft | 11 kts | 107° |
| 2026-05-01 11:53 | 38.90599 | 16.25410 | 45 ft | 15 kts | 121° |
| 2026-05-01 11:53 | 38.90523 | 16.25515 | 45 ft | 16 kts | 141° |
| 2026-05-01 11:53 | 38.90438 | 16.25573 | 45 ft | 14 kts | 176° |
| 2026-05-01 11:53 | 38.90383 | 16.25499 | 45 ft | 14 kts | 271° |
| 2026-05-01 11:54 | 38.90396 | 16.25384 | 45 ft | 13 kts | 282° |
| 2026-05-01 11:54 | 38.90417 | 16.25256 | 46 ft | 22 kts | 279° |
| 2026-05-01 11:54 | 38.90475 | 16.24745 | 45 ft | 91 kts | 277° |
| 2026-05-01 11:54 | 38.90595 | 16.23692 | 48 ft | 144 kts | 278° |
| 2026-05-01 11:55 | 38.90776 | 16.22413 | 610 ft | 143 kts | 279° |
| 2026-05-01 11:55 | 38.90924 | 16.21142 | 1131 ft | 146 kts | 277° |
| 2026-05-01 11:55 | 38.91079 | 16.19780 | 1512 ft | 164 kts | 278° |
| 2026-05-01 11:55 | 38.91256 | 16.18231 | 1801 ft | 187 kts | 281° |
| 2026-05-01 11:56 | 38.91458 | 16.16479 | 2081 ft | 209 kts | 282° |
| 2026-05-01 11:56 | 38.91680 | 16.14541 | 2448 ft | 229 kts | 281° |
| 2026-05-01 11:56 | 38.92029 | 16.12523 | 3145 ft | 232 kts | 295° |
| 2026-05-01 11:56 | 38.92891 | 16.10791 | 3778 ft | 241 kts | 312° |
| 2026-05-01 11:57 | 38.94009 | 16.09086 | 4376 ft | 255 kts | 312° |
| 2026-05-01 11:57 | 38.95174 | 16.07331 | 5207 ft | 260 kts | 313° |
| 2026-05-01 11:57 | 38.96358 | 16.05556 | 6085 ft | 262 kts | 312° |
| 2026-05-01 11:57 | 38.97552 | 16.03760 | 6939 ft | 265 kts | 312° |
| 2026-05-01 11:58 | 38.98737 | 16.01972 | 7793 ft | 266 kts | 311° |
| 2026-05-01 11:58 | 38.99940 | 16.00152 | 8639 ft | 268 kts | 311° |
| 2026-05-01 11:58 | 39.02376 | 15.96456 | 10296 ft | 273 kts | 310° |
| 2026-05-01 11:59 | 39.03781 | 15.94713 | 10688 ft | 292 kts | 322° |
| 2026-05-01 11:59 | 39.05606 | 15.93342 | 10909 ft | 315 kts | 335° |
| 2026-05-01 11:59 | 39.07624 | 15.92218 | 11453 ft | 323 kts | 335° |
| 2026-05-01 12:00 | 39.11768 | 15.89808 | 12920 ft | 329 kts | 334° |
| 2026-05-01 12:00 | 39.13870 | 15.88561 | 13673 ft | 332 kts | 333° |
| 2026-05-01 12:00 | 39.18093 | 15.86046 | 15012 ft | 336 kts | 333° |
| 2026-05-01 12:01 | 39.20203 | 15.84794 | 15646 ft | 339 kts | 333° |
| 2026-05-01 12:01 | 39.22363 | 15.83515 | 16295 ft | 341 kts | 333° |
| 2026-05-01 12:01 | 39.24529 | 15.82232 | 16924 ft | 344 kts | 332° |
| 2026-05-01 12:01 | 39.26691 | 15.80941 | 17552 ft | 346 kts | 330° |
| 2026-05-01 12:02 | 39.28729 | 15.79293 | 18165 ft | 345 kts | 319° |
| 2026-05-01 12:02 | 39.30567 | 15.77284 | 18749 ft | 347 kts | 317° |
| 2026-05-01 12:02 | 39.32413 | 15.75247 | 19337 ft | 348 kts | 317° |
| 2026-05-01 12:02 | 39.34237 | 15.73237 | 19941 ft | 348 kts | 317° |
| 2026-05-01 12:03 | 39.36082 | 15.71204 | 20562 ft | 349 kts | 317° |
| 2026-05-01 12:03 | 39.37757 | 15.69359 | 21116 ft | 349 kts | 317° |
| 2026-05-01 12:03 | 39.39628 | 15.67302 | 21736 ft | 350 kts | 316° |
| 2026-05-01 12:03 | 39.41488 | 15.65260 | 22331 ft | 350 kts | 316° |
| 2026-05-01 12:04 | 39.43348 | 15.63215 | 22904 ft | 351 kts | 316° |
| 2026-05-01 12:04 | 39.45187 | 15.61184 | 23473 ft | 351 kts | 316° |
| 2026-05-01 12:04 | 39.47044 | 15.59123 | 23966 ft | 352 kts | 316° |
| 2026-05-01 12:04 | 39.48905 | 15.57051 | 24387 ft | 354 kts | 316° |
| 2026-05-01 12:05 | 39.50781 | 15.54966 | 24785 ft | 356 kts | 316° |
| 2026-05-01 12:05 | 39.54571 | 15.50772 | 25544 ft | 359 kts | 315° |
| 2026-05-01 12:05 | 39.56454 | 15.48684 | 25913 ft | 361 kts | 315° |
| 2026-05-01 12:06 | 39.58376 | 15.46555 | 26287 ft | 363 kts | 315° |
| 2026-05-01 12:06 | 39.60297 | 15.44426 | 26653 ft | 364 kts | 315° |
| 2026-05-01 12:06 | 39.62230 | 15.42275 | 27017 ft | 366 kts | 315° |
| 2026-05-01 12:06 | 39.64223 | 15.40234 | 27362 ft | 370 kts | 319° |
| 2026-05-01 12:07 | 39.66342 | 15.38310 | 27712 ft | 373 kts | 320° |
| 2026-05-01 12:07 | 39.68502 | 15.36417 | 28045 ft | 375 kts | 321° |
| 2026-05-01 12:07 | 39.70681 | 15.34534 | 28382 ft | 377 kts | 321° |
| 2026-05-01 12:07 | 39.72881 | 15.32632 | 28708 ft | 379 kts | 320° |
| 2026-05-01 12:08 | 39.75080 | 15.30726 | 29026 ft | 380 kts | 320° |
| 2026-05-01 12:08 | 39.77258 | 15.28829 | 29325 ft | 382 kts | 320° |
| 2026-05-01 12:08 | 39.79477 | 15.26881 | 29619 ft | 384 kts | 320° |
| 2026-05-01 12:08 | 39.81692 | 15.24926 | 29909 ft | 385 kts | 320° |
| 2026-05-01 12:09 | 39.83916 | 15.22955 | 30185 ft | 387 kts | 320° |
| 2026-05-01 12:09 | 39.86146 | 15.20977 | 30420 ft | 388 kts | 320° |
| 2026-05-01 12:09 | 39.88368 | 15.19005 | 30608 ft | 391 kts | 320° |
| 2026-05-01 12:09 | 39.90623 | 15.17006 | 30794 ft | 393 kts | 320° |
| 2026-05-01 12:10 | 39.92898 | 15.14993 | 30975 ft | 395 kts | 320° |
| 2026-05-01 12:10 | 39.97463 | 15.10951 | 31405 ft | 397 kts | 321° |
| 2026-05-01 12:10 | 39.99725 | 15.08948 | 31636 ft | 398 kts | 321° |
| 2026-05-01 12:11 | 40.04314 | 15.04877 | 32094 ft | 400 kts | 321° |
| 2026-05-01 12:11 | 40.06625 | 15.02819 | 32330 ft | 401 kts | 321° |
| 2026-05-01 12:11 | 40.08934 | 15.00759 | 32563 ft | 401 kts | 321° |
| 2026-05-01 12:12 | 40.11188 | 14.98746 | 32798 ft | 402 kts | 321° |
| 2026-05-01 12:12 | 40.13500 | 14.96681 | 33025 ft | 403 kts | 322° |
| 2026-05-01 12:12 | 40.15786 | 14.94636 | 33260 ft | 403 kts | 322° |
| 2026-05-01 12:12 | 40.18105 | 14.92560 | 33499 ft | 404 kts | 322° |
| 2026-05-01 12:13 | 40.20431 | 14.90479 | 33752 ft | 404 kts | 322° |
| 2026-05-01 12:13 | 40.22757 | 14.88398 | 33985 ft | 405 kts | 322° |
| 2026-05-01 12:13 | 40.25085 | 14.86316 | 34147 ft | 405 kts | 322° |
| 2026-05-01 12:13 | 40.27403 | 14.84239 | 34190 ft | 402 kts | 322° |
| 2026-05-01 12:14 | 40.32004 | 14.80106 | 34186 ft | 399 kts | 323° |
| 2026-05-01 12:14 | 40.36559 | 14.76020 | 34190 ft | 399 kts | 323° |
| 2026-05-01 12:15 | 40.41131 | 14.71899 | 34185 ft | 399 kts | 323° |
| 2026-05-01 12:15 | 40.45715 | 14.67748 | 34190 ft | 399 kts | 323° |
| 2026-05-01 12:16 | 40.50270 | 14.63632 | 34195 ft | 398 kts | 323° |
| 2026-05-01 12:16 | 40.54849 | 14.59487 | 34194 ft | 398 kts | 323° |
| 2026-05-01 12:17 | 40.59419 | 14.55344 | 34198 ft | 398 kts | 323° |
| 2026-05-01 12:17 | 40.63959 | 14.51219 | 34202 ft | 399 kts | 323° |
| 2026-05-01 12:18 | 40.68530 | 14.47064 | 34216 ft | 399 kts | 323° |
| 2026-05-01 12:18 | 40.73111 | 14.42899 | 34220 ft | 399 kts | 323° |
| 2026-05-01 12:19 | 40.77641 | 14.38758 | 34226 ft | 398 kts | 323° |
| 2026-05-01 12:19 | 40.82203 | 14.34574 | 34225 ft | 398 kts | 323° |
| 2026-05-01 12:20 | 40.86733 | 14.30420 | 34228 ft | 398 kts | 324° |
| 2026-05-01 12:20 | 40.91295 | 14.26243 | 34234 ft | 398 kts | 324° |
| 2026-05-01 12:21 | 40.95847 | 14.22061 | 34224 ft | 397 kts | 324° |
| 2026-05-01 12:21 | 41.00364 | 14.17911 | 34254 ft | 397 kts | 324° |
| 2026-05-01 12:22 | 41.04137 | 14.14432 | 34257 ft | 397 kts | 324° |
| 2026-05-01 12:22 | 41.09407 | 14.09559 | 34255 ft | 396 kts | 324° |
| 2026-05-01 12:23 | 41.12436 | 14.06758 | 34262 ft | 396 kts | 324° |
| 2026-05-01 12:23 | 41.16387 | 14.03095 | 34255 ft | 396 kts | 324° |
| 2026-05-01 12:24 | 41.20904 | 13.98895 | 34247 ft | 396 kts | 324° |
| 2026-05-01 12:24 | 41.25428 | 13.94688 | 34235 ft | 396 kts | 324° |
| 2026-05-01 12:25 | 41.32176 | 13.88399 | 34214 ft | 396 kts | 324° |
| 2026-05-01 12:26 | 41.36695 | 13.84169 | 34200 ft | 397 kts | 324° |
| 2026-05-01 12:26 | 41.43466 | 13.77846 | 34189 ft | 398 kts | 324° |
| 2026-05-01 12:27 | 41.50285 | 13.71456 | 34186 ft | 399 kts | 324° |
| 2026-05-01 12:28 | 41.57103 | 13.65031 | 34182 ft | 401 kts | 324° |
| 2026-05-01 12:29 | 41.63954 | 13.58569 | 34192 ft | 404 kts | 324° |
| 2026-05-01 12:29 | 41.70864 | 13.52038 | 34197 ft | 406 kts | 324° |
| 2026-05-01 12:30 | 41.77768 | 13.45496 | 34203 ft | 407 kts | 325° |
| 2026-05-01 12:31 | 41.82404 | 13.41085 | 34209 ft | 408 kts | 325° |
| 2026-05-01 12:31 | 41.87020 | 13.36690 | 34210 ft | 409 kts | 326° |
| 2026-05-01 12:32 | 41.91670 | 13.32261 | 34207 ft | 410 kts | 326° |
| 2026-05-01 12:32 | 41.98652 | 13.25590 | 34211 ft | 411 kts | 326° |
| 2026-05-01 12:33 | 42.03321 | 13.21110 | 34207 ft | 411 kts | 326° |
| 2026-05-01 12:33 | 42.07963 | 13.16642 | 34212 ft | 412 kts | 326° |
| 2026-05-01 12:34 | 42.12639 | 13.12151 | 34201 ft | 412 kts | 326° |
| 2026-05-01 12:34 | 42.17316 | 13.07647 | 34209 ft | 412 kts | 327° |
| 2026-05-01 12:35 | 42.21953 | 13.03164 | 34222 ft | 412 kts | 327° |
| 2026-05-01 12:35 | 42.26633 | 12.98638 | 34227 ft | 412 kts | 327° |
| 2026-05-01 12:36 | 42.31275 | 12.94138 | 34228 ft | 412 kts | 327° |
| 2026-05-01 12:36 | 42.35942 | 12.89611 | 34230 ft | 412 kts | 327° |
| 2026-05-01 12:37 | 42.40607 | 12.85079 | 34230 ft | 412 kts | 328° |
| 2026-05-01 12:37 | 42.45239 | 12.80569 | 34234 ft | 412 kts | 328° |
| 2026-05-01 12:38 | 42.49900 | 12.76021 | 34235 ft | 412 kts | 328° |
| 2026-05-01 12:38 | 42.54553 | 12.71469 | 34234 ft | 411 kts | 328° |
| 2026-05-01 12:39 | 42.59165 | 12.66952 | 34235 ft | 411 kts | 328° |
| 2026-05-01 12:39 | 42.63798 | 12.62401 | 34236 ft | 411 kts | 329° |
| 2026-05-01 12:40 | 42.68430 | 12.57849 | 34248 ft | 410 kts | 329° |
| 2026-05-01 12:40 | 42.73017 | 12.53332 | 34253 ft | 409 kts | 329° |
| 2026-05-01 12:41 | 42.77638 | 12.48774 | 34265 ft | 408 kts | 329° |
| 2026-05-01 12:41 | 42.82212 | 12.44251 | 34283 ft | 407 kts | 330° |
| 2026-05-01 12:42 | 42.86798 | 12.39704 | 34291 ft | 406 kts | 330° |
| 2026-05-01 12:42 | 42.91336 | 12.35193 | 34307 ft | 405 kts | 330° |
| 2026-05-01 12:43 | 42.95891 | 12.30662 | 34304 ft | 404 kts | 330° |
| 2026-05-01 12:43 | 43.00407 | 12.26165 | 34310 ft | 403 kts | 330° |
| 2026-05-01 12:44 | 43.04952 | 12.21631 | 34297 ft | 402 kts | 330° |
| 2026-05-01 12:45 | 43.13873 | 12.12690 | 34299 ft | 400 kts | 330° |
| 2026-05-01 12:45 | 43.18337 | 12.08209 | 34292 ft | 399 kts | 331° |
| 2026-05-01 12:46 | 43.22832 | 12.03703 | 34291 ft | 399 kts | 331° |
| 2026-05-01 12:46 | 43.27310 | 11.99189 | 34287 ft | 399 kts | 330° |
| 2026-05-01 12:47 | 43.31784 | 11.94662 | 34286 ft | 399 kts | 331° |
| 2026-05-01 12:47 | 43.36232 | 11.90171 | 34281 ft | 399 kts | 331° |
| 2026-05-01 12:48 | 43.40717 | 11.85629 | 34277 ft | 399 kts | 330° |
| 2026-05-01 12:48 | 43.45178 | 11.81102 | 34280 ft | 400 kts | 331° |
| 2026-05-01 12:49 | 43.49672 | 11.76539 | 34279 ft | 401 kts | 330° |
| 2026-05-01 12:49 | 43.54152 | 11.71981 | 34274 ft | 401 kts | 330° |
| 2026-05-01 12:50 | 43.58628 | 11.67404 | 34276 ft | 402 kts | 330° |
| 2026-05-01 12:50 | 43.63133 | 11.62783 | 34272 ft | 403 kts | 330° |
| 2026-05-01 12:51 | 43.67653 | 11.58147 | 34270 ft | 404 kts | 330° |
| 2026-05-01 12:52 | 43.74432 | 11.51197 | 34270 ft | 407 kts | 330° |
| 2026-05-01 12:52 | 43.81269 | 11.44151 | 34268 ft | 408 kts | 330° |
| 2026-05-01 12:53 | 43.88104 | 11.37080 | 34267 ft | 409 kts | 329° |
| 2026-05-01 12:54 | 43.92656 | 11.32369 | 34268 ft | 411 kts | 329° |
| 2026-05-01 12:54 | 43.99563 | 11.25206 | 34278 ft | 413 kts | 329° |
| 2026-05-01 12:55 | 44.06453 | 11.18025 | 34287 ft | 414 kts | 329° |
| 2026-05-01 12:56 | 44.11079 | 11.13193 | 34291 ft | 415 kts | 329° |
| 2026-05-01 12:56 | 44.15685 | 11.08381 | 34289 ft | 416 kts | 329° |
| 2026-05-01 12:57 | 44.20296 | 11.03543 | 34298 ft | 417 kts | 328° |
| 2026-05-01 12:57 | 44.27262 | 10.96219 | 34297 ft | 418 kts | 328° |
| 2026-05-01 12:58 | 44.31888 | 10.91342 | 34306 ft | 419 kts | 328° |
| 2026-05-01 12:59 | 44.38887 | 10.83947 | 34315 ft | 420 kts | 328° |
| 2026-05-01 12:59 | 44.45867 | 10.76564 | 34324 ft | 421 kts | 328° |
| 2026-05-01 13:00 | 44.52854 | 10.69151 | 34329 ft | 422 kts | 327° |
| 2026-05-01 13:01 | 44.59877 | 10.61663 | 34331 ft | 423 kts | 327° |
| 2026-05-01 13:02 | 44.66882 | 10.54160 | 34345 ft | 423 kts | 327° |
| 2026-05-01 13:07 | 45.18509 | 9.98209 | 34366 ft | 427 kts | 326° |
| 2026-05-01 13:08 | 45.23222 | 9.93045 | 34362 ft | 428 kts | 326° |
| 2026-05-01 13:08 | 45.27903 | 9.87898 | 34360 ft | 428 kts | 325° |
| 2026-05-01 13:09 | 45.32618 | 9.82701 | 34339 ft | 428 kts | 325° |
| 2026-05-01 13:09 | 45.37309 | 9.77514 | 34302 ft | 428 kts | 325° |
| 2026-05-01 13:10 | 45.42019 | 9.72293 | 34268 ft | 429 kts | 325° |
| 2026-05-01 13:10 | 45.45948 | 9.67933 | 34239 ft | 429 kts | 324° |
| 2026-05-01 13:11 | 45.50629 | 9.62723 | 34205 ft | 429 kts | 324° |
| 2026-05-01 13:11 | 45.55351 | 9.57473 | 34201 ft | 429 kts | 324° |
| 2026-05-01 13:12 | 45.60038 | 9.52252 | 34202 ft | 429 kts | 324° |
| 2026-05-01 13:12 | 45.64749 | 9.46996 | 34207 ft | 429 kts | 324° |
| 2026-05-01 13:13 | 45.69454 | 9.41720 | 34242 ft | 429 kts | 324° |
| 2026-05-01 13:13 | 45.74127 | 9.36454 | 34279 ft | 430 kts | 324° |
| 2026-05-01 13:14 | 45.78829 | 9.31157 | 34319 ft | 429 kts | 324° |
| 2026-05-01 13:14 | 45.83535 | 9.25855 | 34372 ft | 429 kts | 323° |
| 2026-05-01 13:15 | 45.88211 | 9.20570 | 34371 ft | 430 kts | 323° |
| 2026-05-01 13:15 | 45.92911 | 9.15240 | 34367 ft | 430 kts | 323° |
| 2026-05-01 13:15 | 45.95257 | 9.12576 | 34262 ft | 431 kts | 323° |
| 2026-05-01 13:16 | 45.97619 | 9.09894 | 33996 ft | 431 kts | 323° |
| 2026-05-01 13:16 | 45.99947 | 9.07245 | 33718 ft | 431 kts | 323° |
| 2026-05-01 13:16 | 46.02302 | 9.04563 | 33448 ft | 431 kts | 323° |
| 2026-05-01 13:17 | 46.09304 | 8.96557 | 32652 ft | 427 kts | 323° |
| 2026-05-01 13:17 | 46.11630 | 8.93887 | 32390 ft | 425 kts | 323° |
| 2026-05-01 13:18 | 46.16593 | 8.89384 | 31877 ft | 419 kts | 339° |
| 2026-05-01 13:18 | 46.19309 | 8.88038 | 31621 ft | 416 kts | 347° |
| 2026-05-01 13:18 | 46.22154 | 8.87294 | 31375 ft | 413 kts | 355° |
| 2026-05-01 13:18 | 46.25017 | 8.86870 | 31126 ft | 412 kts | 355° |
| 2026-05-01 13:19 | 46.27868 | 8.86443 | 30877 ft | 410 kts | 355° |
| 2026-05-01 13:19 | 46.30710 | 8.86013 | 30637 ft | 409 kts | 355° |
| 2026-05-01 13:19 | 46.36323 | 8.85163 | 30093 ft | 406 kts | 355° |
| 2026-05-01 13:20 | 46.39140 | 8.84741 | 29803 ft | 404 kts | 355° |
| 2026-05-01 13:20 | 46.41899 | 8.84327 | 29521 ft | 402 kts | 355° |
| 2026-05-01 13:20 | 46.44684 | 8.83910 | 29234 ft | 400 kts | 355° |
| 2026-05-01 13:21 | 46.50227 | 8.83076 | 28676 ft | 396 kts | 355° |
| 2026-05-01 13:21 | 46.52930 | 8.82665 | 28407 ft | 395 kts | 355° |
| 2026-05-01 13:21 | 46.55667 | 8.82247 | 28133 ft | 393 kts | 355° |
| 2026-05-01 13:21 | 46.58397 | 8.81831 | 27862 ft | 392 kts | 355° |
| 2026-05-01 13:22 | 46.61107 | 8.81419 | 27598 ft | 390 kts | 355° |
| 2026-05-01 13:22 | 46.63771 | 8.81017 | 27341 ft | 389 kts | 355° |
| 2026-05-01 13:22 | 46.66459 | 8.80612 | 27082 ft | 387 kts | 355° |
| 2026-05-01 13:22 | 46.69134 | 8.80206 | 26823 ft | 386 kts | 355° |
| 2026-05-01 13:23 | 46.71809 | 8.79800 | 26567 ft | 384 kts | 355° |
| 2026-05-01 13:23 | 46.74465 | 8.79395 | 26313 ft | 383 kts | 355° |
| 2026-05-01 13:23 | 46.77088 | 8.78996 | 26061 ft | 382 kts | 355° |
| 2026-05-01 13:23 | 46.79732 | 8.78598 | 25814 ft | 381 kts | 355° |
| 2026-05-01 13:24 | 46.82370 | 8.78201 | 25564 ft | 380 kts | 355° |
| 2026-05-01 13:24 | 46.84873 | 8.77821 | 25327 ft | 378 kts | 355° |
| 2026-05-01 13:24 | 46.87568 | 8.77410 | 25078 ft | 377 kts | 355° |
| 2026-05-01 13:25 | 46.92773 | 8.76615 | 24608 ft | 374 kts | 355° |
| 2026-05-01 13:25 | 46.95366 | 8.76220 | 24367 ft | 373 kts | 355° |
| 2026-05-01 13:25 | 46.97956 | 8.75820 | 24133 ft | 372 kts | 355° |
| 2026-05-01 13:25 | 47.00495 | 8.75419 | 23903 ft | 371 kts | 355° |
| 2026-05-01 13:26 | 47.03058 | 8.75011 | 23389 ft | 371 kts | 355° |
| 2026-05-01 13:26 | 47.05642 | 8.74598 | 22365 ft | 371 kts | 355° |
| 2026-05-01 13:26 | 47.08170 | 8.74150 | 21847 ft | 358 kts | 353° |
| 2026-05-01 13:26 | 47.10594 | 8.73584 | 21280 ft | 347 kts | 351° |
| 2026-05-01 13:27 | 47.12916 | 8.72954 | 20852 ft | 342 kts | 350° |
| 2026-05-01 13:27 | 47.15251 | 8.72288 | 20408 ft | 342 kts | 350° |
| 2026-05-01 13:27 | 47.19935 | 8.70966 | 19526 ft | 342 kts | 351° |
| 2026-05-01 13:28 | 47.24601 | 8.69710 | 18649 ft | 342 kts | 351° |
| 2026-05-01 13:28 | 47.26936 | 8.68950 | 18163 ft | 344 kts | 343° |
| 2026-05-01 13:29 | 47.31328 | 8.66114 | 17270 ft | 343 kts | 336° |
| 2026-05-01 13:29 | 47.35660 | 8.63143 | 16399 ft | 343 kts | 336° |
| 2026-05-01 13:30 | 47.43763 | 8.55764 | 14616 ft | 345 kts | 315° |
| 2026-05-01 13:31 | 47.46132 | 8.49658 | 13662 ft | 347 kts | 284° |
| 2026-05-01 13:31 | 47.47200 | 8.39175 | 12256 ft | 343 kts | 277° |
| 2026-05-01 13:32 | 47.47869 | 8.32200 | 11315 ft | 341 kts | 277° |
| 2026-05-01 13:33 | 47.48850 | 8.21973 | 10345 ft | 322 kts | 277° |
| 2026-05-01 13:33 | 47.49447 | 8.15669 | 9999 ft | 302 kts | 277° |
| 2026-05-01 13:34 | 47.50016 | 8.09604 | 9559 ft | 288 kts | 279° |
| 2026-05-01 13:34 | 47.52221 | 8.05185 | 9284 ft | 270 kts | 338° |
| 2026-05-01 13:35 | 47.55698 | 8.05742 | 8679 ft | 256 kts | 38° |
| 2026-05-01 13:35 | 47.56842 | 8.07655 | 8253 ft | 250 kts | 66° |
| 2026-05-01 13:35 | 47.56863 | 8.12556 | 7133 ft | 244 kts | 116° |
| 2026-05-01 13:36 | 47.56119 | 8.14833 | 6500 ft | 246 kts | 115° |
| 2026-05-01 13:36 | 47.55595 | 8.17231 | 5924 ft | 245 kts | 98° |
| 2026-05-01 13:36 | 47.56003 | 8.22103 | 5055 ft | 239 kts | 66° |
| 2026-05-01 13:37 | 47.56689 | 8.24346 | 4751 ft | 239 kts | 65° |
| 2026-05-01 13:37 | 47.57357 | 8.26557 | 4455 ft | 238 kts | 66° |
| 2026-05-01 13:37 | 47.58022 | 8.28774 | 4277 ft | 229 kts | 66° |
| 2026-05-01 13:37 | 47.58654 | 8.30885 | 4223 ft | 218 kts | 66° |
| 2026-05-01 13:38 | 47.59808 | 8.34875 | 4070 ft | 202 kts | 75° |
| 2026-05-01 13:38 | 47.59829 | 8.36860 | 3997 ft | 192 kts | 106° |
| 2026-05-01 13:38 | 47.59224 | 8.38491 | 3994 ft | 174 kts | 133° |
| 2026-05-01 13:39 | 47.58387 | 8.39655 | 3987 ft | 157 kts | 135° |
| 2026-05-01 13:39 | 47.57606 | 8.40726 | 3949 ft | 151 kts | 136° |
| 2026-05-01 13:39 | 47.56853 | 8.41762 | 3745 ft | 146 kts | 135° |
| 2026-05-01 13:39 | 47.56110 | 8.42782 | 3582 ft | 146 kts | 135° |
| 2026-05-01 13:40 | 47.55366 | 8.43802 | 3375 ft | 144 kts | 133° |
| 2026-05-01 13:40 | 47.54636 | 8.44805 | 3182 ft | 142 kts | 136° |
| 2026-05-01 13:40 | 47.53912 | 8.45797 | 2987 ft | 142 kts | 136° |
| 2026-05-01 13:40 | 47.53189 | 8.46788 | 2801 ft | 140 kts | 135° |
| 2026-05-01 13:41 | 47.52469 | 8.47775 | 2612 ft | 141 kts | 135° |
| 2026-05-01 13:41 | 47.51746 | 8.48765 | 2422 ft | 142 kts | 135° |
| 2026-05-01 13:41 | 47.51021 | 8.49758 | 2219 ft | 143 kts | 134° |
| 2026-05-01 13:41 | 47.50295 | 8.50752 | 2015 ft | 145 kts | 134° |
| 2026-05-01 13:42 | 47.49559 | 8.51758 | 1819 ft | 143 kts | 134° |
| 2026-05-01 13:42 | 47.48835 | 8.52755 | 1627 ft | 142 kts | 134° |
| 2026-05-01 13:42 | 47.48122 | 8.53760 | 1436 ft | 141 kts | 134° |
| 2026-05-01 13:42 | 47.47479 | 8.54666 | 1398 ft | 95 kts | 137° |
| 2026-05-01 13:43 | 47.47178 | 8.55066 | 1393 ft | 44 kts | 139° |
| 2026-05-01 13:43 | 47.46933 | 8.55365 | 1396 ft | 44 kts | 139° |
| 2026-05-01 13:43 | 47.46696 | 8.55627 | 1404 ft | 41 kts | 155° |
| 2026-05-01 13:43 | 47.46462 | 8.55723 | 1400 ft | 23 kts | 169° |
| 2026-05-01 13:44 | 47.46333 | 8.55833 | 1399 ft | 14 kts | 136° |
| 2026-05-01 13:44 | 47.46260 | 8.55934 | 1397 ft | 15 kts | 138° |
| 2026-05-01 13:44 | 47.46172 | 8.56002 | 1399 ft | 14 kts | 180° |
| 2026-05-01 13:44 | 47.46086 | 8.55989 | 1400 ft | 12 kts | 188° |
| 2026-05-01 13:45 | 47.45996 | 8.55973 | 1400 ft | 14 kts | 186° |
| 2026-05-01 13:45 | 47.45889 | 8.55925 | 1404 ft | 18 kts | 201° |
| 2026-05-01 13:45 | 47.45759 | 8.55874 | 1402 ft | 19 kts | 188° |
| 2026-05-01 13:45 | 47.45626 | 8.55853 | 1397 ft | 20 kts | 185° |
| 2026-05-01 13:46 | 47.45516 | 8.55807 | 1405 ft | 14 kts | 234° |
| 2026-05-01 13:46 | 47.45513 | 8.55676 | 1397 ft | 12 kts | 274° |
| 2026-05-01 13:46 | 47.45521 | 8.55560 | 1397 ft | 11 kts | 276° |
| 2026-05-01 13:46 | 47.45513 | 8.55461 | 1404 ft | 9 kts | 235° |
| 2026-05-01 13:47 | 47.45461 | 8.55452 | 1397 ft | 7 kts | 161° |
| 2026-05-01 13:47 | 47.45418 | 8.55476 | 1401 ft | 6 kts | 157° |
| 2026-05-01 13:47 | 47.45383 | 8.55499 | 1403 ft | 5 kts | 157° |
| 2026-05-01 13:47 | 47.45336 | 8.55529 | 1401 ft | 11 kts | 156° |
| 2026-05-01 13:48 | 47.45270 | 8.55627 | 1400 ft | 15 kts | 105° |
| 2026-05-01 13:48 | 47.45261 | 8.55786 | 1397 ft | 9 kts | 96° |
| 2026-05-01 13:48 | 47.45211 | 8.55811 | 1397 ft | 8 kts | 190° |
| 2026-05-01 13:48 | 47.45172 | 8.55804 | 1397 ft | 2 kts | 185° |
| 2026-05-01 13:49 | 47.45165 | 8.55803 | 1397 ft | 0 kts | 185° |